sensor_id;sensor_type;location;lat;lon;timestamp;P1;durP1;ratioP1;P2;durP2;ratioP2
33954;SDS011;20233;50.804;7.126;2023-08-31T00:00:09;10.05;;;3.83;;
33954;SDS011;20233;50.804;7.126;2023-08-31T00:02:36;8.60;;;3.70;;
33954;SDS011;20233;50.804;7.126;2023-08-31T00:05:04;8.05;;;3.60;;
33954;SDS011;20233;50.804;7.126;2023-08-31T00:07:32;7.10;;;3.05;;
33954;SDS011;20233;50.804;7.126;2023-08-31T00:09:57;7.38;;;3.58;;
33954;SDS011;20233;50.804;7.126;2023-08-31T00:12:34;9.00;;;3.30;;
33954;SDS011;20233;50.804;7.126;2023-08-31T00:15:01;5.18;;;2.90;;
33954;SDS011;20233;50.804;7.126;2023-08-31T00:17:29;7.72;;;2.53;;
33954;SDS011;20233;50.804;7.126;2023-08-31T00:19:55;7.93;;;2.95;;
33954;SDS011;20233;50.804;7.126;2023-08-31T00:22:20;5.60;;;3.17;;
33954;SDS011;20233;50.804;7.126;2023-08-31T00:24:46;7.63;;;2.70;;
33954;SDS011;20233;50.804;7.126;2023-08-31T00:27:11;8.35;;;2.53;;
33954;SDS011;20233;50.804;7.126;2023-08-31T00:29:40;6.57;;;2.67;;
33954;SDS011;20233;50.804;7.126;2023-08-31T00:32:05;5.10;;;2.88;;
33954;SDS011;20233;50.804;7.126;2023-08-31T00:34:31;7.43;;;2.97;;
33954;SDS011;20233;50.804;7.126;2023-08-31T00:36:57;7.72;;;2.88;;
33954;SDS011;20233;50.804;7.126;2023-08-31T00:39:22;6.53;;;3.28;;
33954;SDS011;20233;50.804;7.126;2023-08-31T00:41:48;6.72;;;2.25;;
33954;SDS011;20233;50.804;7.126;2023-08-31T00:44:15;6.50;;;2.58;;
33954;SDS011;20233;50.804;7.126;2023-08-31T00:46:40;6.95;;;2.53;;
33954;SDS011;20233;50.804;7.126;2023-08-31T00:49:07;9.57;;;2.75;;
33954;SDS011;20233;50.804;7.126;2023-08-31T00:51:33;6.22;;;2.10;;
33954;SDS011;20233;50.804;7.126;2023-08-31T00:54:00;7.85;;;2.28;;
33954;SDS011;20233;50.804;7.126;2023-08-31T00:56:26;6.57;;;3.30;;
33954;SDS011;20233;50.804;7.126;2023-08-31T00:58:51;9.57;;;2.70;;
33954;SDS011;20233;50.804;7.126;2023-08-31T01:06:59;5.72;;;2.55;;
33954;SDS011;20233;50.804;7.126;2023-08-31T01:09:40;6.22;;;2.03;;
33954;SDS011;20233;50.804;7.126;2023-08-31T01:12:18;3.43;;;2.10;;
33954;SDS011;20233;50.804;7.126;2023-08-31T01:14:56;3.38;;;2.20;;
33954;SDS011;20233;50.804;7.126;2023-08-31T01:17:24;8.32;;;1.88;;
33954;SDS011;20233;50.804;7.126;2023-08-31T01:19:55;4.90;;;2.13;;
33954;SDS011;20233;50.804;7.126;2023-08-31T01:22:39;6.65;;;2.20;;
33954;SDS011;20233;50.804;7.126;2023-08-31T01:25:12;6.85;;;2.20;;
33954;SDS011;20233;50.804;7.126;2023-08-31T01:27:38;3.80;;;2.20;;
33954;SDS011;20233;50.804;7.126;2023-08-31T01:30:05;8.23;;;2.42;;
33954;SDS011;20233;50.804;7.126;2023-08-31T01:32:31;6.25;;;2.40;;
33954;SDS011;20233;50.804;7.126;2023-08-31T01:34:58;7.93;;;2.95;;
33954;SDS011;20233;50.804;7.126;2023-08-31T01:42:43;5.50;;;2.08;;
33954;SDS011;20233;50.804;7.126;2023-08-31T01:45:10;4.63;;;1.75;;
33954;SDS011;20233;50.804;7.126;2023-08-31T01:47:39;5.55;;;2.28;;
33954;SDS011;20233;50.804;7.126;2023-08-31T01:50:05;6.07;;;2.15;;
33954;SDS011;20233;50.804;7.126;2023-08-31T01:52:31;7.00;;;2.05;;
33954;SDS011;20233;50.804;7.126;2023-08-31T01:54:56;6.25;;;2.08;;
33954;SDS011;20233;50.804;7.126;2023-08-31T01:57:22;4.90;;;1.92;;
33954;SDS011;20233;50.804;7.126;2023-08-31T01:59:47;10.23;;;1.95;;
33954;SDS011;20233;50.804;7.126;2023-08-31T02:02:13;9.80;;;2.10;;
33954;SDS011;20233;50.804;7.126;2023-08-31T02:04:39;4.97;;;1.70;;
33954;SDS011;20233;50.804;7.126;2023-08-31T02:07:05;5.10;;;2.03;;
33954;SDS011;20233;50.804;7.126;2023-08-31T02:09:30;7.20;;;2.15;;
33954;SDS011;20233;50.804;7.126;2023-08-31T02:11:56;3.55;;;2.35;;
33954;SDS011;20233;50.804;7.126;2023-08-31T02:14:22;5.25;;;2.45;;
33954;SDS011;20233;50.804;7.126;2023-08-31T02:16:48;5.43;;;1.88;;
33954;SDS011;20233;50.804;7.126;2023-08-31T02:19:13;6.18;;;2.17;;
33954;SDS011;20233;50.804;7.126;2023-08-31T02:21:39;4.90;;;2.05;;
33954;SDS011;20233;50.804;7.126;2023-08-31T02:24:05;7.53;;;2.08;;
33954;SDS011;20233;50.804;7.126;2023-08-31T02:26:31;4.63;;;2.15;;
33954;SDS011;20233;50.804;7.126;2023-08-31T02:28:56;4.28;;;1.92;;
33954;SDS011;20233;50.804;7.126;2023-08-31T02:31:22;6.18;;;2.38;;
33954;SDS011;20233;50.804;7.126;2023-08-31T02:33:49;4.93;;;1.92;;
33954;SDS011;20233;50.804;7.126;2023-08-31T02:36:15;9.00;;;2.35;;
33954;SDS011;20233;50.804;7.126;2023-08-31T02:38:40;4.60;;;2.13;;
33954;SDS011;20233;50.804;7.126;2023-08-31T02:41:06;4.85;;;2.30;;
33954;SDS011;20233;50.804;7.126;2023-08-31T02:43:32;5.10;;;2.80;;
33954;SDS011;20233;50.804;7.126;2023-08-31T02:46:00;6.85;;;2.90;;
33954;SDS011;20233;50.804;7.126;2023-08-31T02:48:27;5.57;;;2.20;;
33954;SDS011;20233;50.804;7.126;2023-08-31T02:50:54;4.18;;;2.33;;
33954;SDS011;20233;50.804;7.126;2023-08-31T02:53:21;8.25;;;2.65;;
33954;SDS011;20233;50.804;7.126;2023-08-31T02:55:47;4.57;;;2.35;;
33954;SDS011;20233;50.804;7.126;2023-08-31T02:58:13;4.93;;;2.67;;
33954;SDS011;20233;50.804;7.126;2023-08-31T03:00:39;5.07;;;2.78;;
33954;SDS011;20233;50.804;7.126;2023-08-31T03:03:07;7.88;;;3.40;;
33954;SDS011;20233;50.804;7.126;2023-08-31T03:05:33;12.25;;;3.17;;
33954;SDS011;20233;50.804;7.126;2023-08-31T03:07:59;6.90;;;2.83;;
33954;SDS011;20233;50.804;7.126;2023-08-31T03:10:24;7.85;;;3.33;;
33954;SDS011;20233;50.804;7.126;2023-08-31T03:12:50;8.07;;;2.85;;
33954;SDS011;20233;50.804;7.126;2023-08-31T03:15:16;6.20;;;3.40;;
33954;SDS011;20233;50.804;7.126;2023-08-31T03:17:41;7.80;;;3.33;;
33954;SDS011;20233;50.804;7.126;2023-08-31T03:20:07;5.78;;;3.00;;
33954;SDS011;20233;50.804;7.126;2023-08-31T03:22:32;7.03;;;3.08;;
33954;SDS011;20233;50.804;7.126;2023-08-31T03:24:59;5.25;;;3.08;;
33954;SDS011;20233;50.804;7.126;2023-08-31T03:27:25;6.13;;;2.97;;
33954;SDS011;20233;50.804;7.126;2023-08-31T03:29:50;3.83;;;2.63;;
33954;SDS011;20233;50.804;7.126;2023-08-31T03:32:16;5.05;;;2.78;;
33954;SDS011;20233;50.804;7.126;2023-08-31T03:34:41;6.88;;;2.92;;
33954;SDS011;20233;50.804;7.126;2023-08-31T03:37:07;8.85;;;3.40;;
33954;SDS011;20233;50.804;7.126;2023-08-31T03:39:32;7.03;;;3.40;;
33954;SDS011;20233;50.804;7.126;2023-08-31T03:41:58;7.78;;;2.90;;
33954;SDS011;20233;50.804;7.126;2023-08-31T03:44:24;8.23;;;2.72;;
33954;SDS011;20233;50.804;7.126;2023-08-31T03:46:49;5.72;;;3.72;;
33954;SDS011;20233;50.804;7.126;2023-08-31T03:49:15;7.57;;;3.10;;
33954;SDS011;20233;50.804;7.126;2023-08-31T03:51:40;5.05;;;2.95;;
33954;SDS011;20233;50.804;7.126;2023-08-31T03:54:06;9.70;;;3.42;;
33954;SDS011;20233;50.804;7.126;2023-08-31T03:56:32;7.18;;;4.03;;
33954;SDS011;20233;50.804;7.126;2023-08-31T03:58:58;7.70;;;3.67;;
33954;SDS011;20233;50.804;7.126;2023-08-31T04:01:23;5.18;;;3.63;;
33954;SDS011;20233;50.804;7.126;2023-08-31T04:03:49;7.45;;;3.60;;
33954;SDS011;20233;50.804;7.126;2023-08-31T04:06:14;5.85;;;3.65;;
33954;SDS011;20233;50.804;7.126;2023-08-31T04:08:40;6.70;;;3.60;;
33954;SDS011;20233;50.804;7.126;2023-08-31T04:11:05;5.95;;;3.92;;
33954;SDS011;20233;50.804;7.126;2023-08-31T04:13:31;7.82;;;3.45;;
33954;SDS011;20233;50.804;7.126;2023-08-31T04:15:56;4.30;;;3.08;;
33954;SDS011;20233;50.804;7.126;2023-08-31T04:18:22;7.00;;;3.97;;
33954;SDS011;20233;50.804;7.126;2023-08-31T04:20:48;7.57;;;4.05;;
33954;SDS011;20233;50.804;7.126;2023-08-31T04:23:19;9.48;;;2.95;;
33954;SDS011;20233;50.804;7.126;2023-08-31T04:25:46;5.57;;;3.65;;
33954;SDS011;20233;50.804;7.126;2023-08-31T04:28:12;7.85;;;3.55;;
33954;SDS011;20233;50.804;7.126;2023-08-31T04:30:39;5.18;;;3.25;;
33954;SDS011;20233;50.804;7.126;2023-08-31T04:33:05;5.95;;;3.70;;
33954;SDS011;20233;50.804;7.126;2023-08-31T04:35:31;7.20;;;3.70;;
33954;SDS011;20233;50.804;7.126;2023-08-31T04:37:58;5.60;;;3.92;;
33954;SDS011;20233;50.804;7.126;2023-08-31T04:40:23;8.93;;;4.30;;
33954;SDS011;20233;50.804;7.126;2023-08-31T04:42:49;6.00;;;4.00;;
33954;SDS011;20233;50.804;7.126;2023-08-31T04:45:15;7.07;;;3.90;;
33954;SDS011;20233;50.804;7.126;2023-08-31T04:47:41;6.97;;;4.20;;
33954;SDS011;20233;50.804;7.126;2023-08-31T04:50:07;6.60;;;3.13;;
33954;SDS011;20233;50.804;7.126;2023-08-31T04:52:33;9.23;;;3.08;;
33954;SDS011;20233;50.804;7.126;2023-08-31T04:55:00;7.25;;;3.08;;
33954;SDS011;20233;50.804;7.126;2023-08-31T04:57:28;7.90;;;3.05;;
33954;SDS011;20233;50.804;7.126;2023-08-31T04:59:54;5.63;;;3.55;;
33954;SDS011;20233;50.804;7.126;2023-08-31T05:02:19;7.40;;;3.70;;
33954;SDS011;20233;50.804;7.126;2023-08-31T05:04:45;5.00;;;3.10;;
33954;SDS011;20233;50.804;7.126;2023-08-31T05:07:10;5.30;;;3.10;;
33954;SDS011;20233;50.804;7.126;2023-08-31T05:09:36;4.60;;;3.15;;
33954;SDS011;20233;50.804;7.126;2023-08-31T05:12:02;6.28;;;3.45;;
33954;SDS011;20233;50.804;7.126;2023-08-31T05:14:28;4.93;;;3.30;;
33954;SDS011;20233;50.804;7.126;2023-08-31T05:16:55;4.53;;;3.80;;
33954;SDS011;20233;50.804;7.126;2023-08-31T05:19:21;5.55;;;2.78;;
33954;SDS011;20233;50.804;7.126;2023-08-31T05:21:50;8.07;;;3.25;;
33954;SDS011;20233;50.804;7.126;2023-08-31T05:24:16;6.95;;;3.13;;
33954;SDS011;20233;50.804;7.126;2023-08-31T05:26:42;8.25;;;3.40;;
33954;SDS011;20233;50.804;7.126;2023-08-31T05:29:09;5.70;;;2.67;;
33954;SDS011;20233;50.804;7.126;2023-08-31T05:31:36;5.25;;;3.08;;
33954;SDS011;20233;50.804;7.126;2023-08-31T05:34:04;6.40;;;3.20;;
33954;SDS011;20233;50.804;7.126;2023-08-31T05:36:31;4.43;;;3.10;;
33954;SDS011;20233;50.804;7.126;2023-08-31T05:38:57;9.52;;;3.17;;
33954;SDS011;20233;50.804;7.126;2023-08-31T05:41:25;7.57;;;3.33;;
33954;SDS011;20233;50.804;7.126;2023-08-31T05:43:56;7.47;;;3.78;;
33954;SDS011;20233;50.804;7.126;2023-08-31T05:46:24;7.70;;;3.40;;
33954;SDS011;20233;50.804;7.126;2023-08-31T05:48:49;4.65;;;2.90;;
33954;SDS011;20233;50.804;7.126;2023-08-31T05:51:17;7.78;;;3.17;;
33954;SDS011;20233;50.804;7.126;2023-08-31T05:53:45;5.18;;;3.20;;
33954;SDS011;20233;50.804;7.126;2023-08-31T05:56:13;4.03;;;2.70;;
33954;SDS011;20233;50.804;7.126;2023-08-31T05:58:40;4.85;;;2.70;;
33954;SDS011;20233;50.804;7.126;2023-08-31T06:01:06;8.32;;;3.25;;
33954;SDS011;20233;50.804;7.126;2023-08-31T06:03:33;8.23;;;3.30;;
33954;SDS011;20233;50.804;7.126;2023-08-31T06:05:59;6.38;;;3.15;;
33954;SDS011;20233;50.804;7.126;2023-08-31T06:08:28;6.07;;;3.17;;
33954;SDS011;20233;50.804;7.126;2023-08-31T06:10:58;4.95;;;2.92;;
33954;SDS011;20233;50.804;7.126;2023-08-31T06:13:26;7.80;;;2.90;;
33954;SDS011;20233;50.804;7.126;2023-08-31T06:15:54;6.30;;;3.03;;
33954;SDS011;20233;50.804;7.126;2023-08-31T06:18:23;5.30;;;2.22;;
33954;SDS011;20233;50.804;7.126;2023-08-31T06:20:49;8.07;;;2.75;;
33954;SDS011;20233;50.804;7.126;2023-08-31T06:23:16;3.50;;;2.45;;
33954;SDS011;20233;50.804;7.126;2023-08-31T06:25:43;5.65;;;2.65;;
33954;SDS011;20233;50.804;7.126;2023-08-31T06:28:11;4.47;;;2.50;;
33954;SDS011;20233;50.804;7.126;2023-08-31T06:30:38;7.03;;;2.30;;
33954;SDS011;20233;50.804;7.126;2023-08-31T06:33:11;4.68;;;2.40;;
33954;SDS011;20233;50.804;7.126;2023-08-31T06:35:39;4.47;;;2.17;;
33954;SDS011;20233;50.804;7.126;2023-08-31T06:38:06;6.57;;;2.15;;
33954;SDS011;20233;50.804;7.126;2023-08-31T06:40:33;6.35;;;1.60;;
33954;SDS011;20233;50.804;7.126;2023-08-31T06:43:00;4.97;;;1.90;;
33954;SDS011;20233;50.804;7.126;2023-08-31T06:45:28;5.70;;;1.83;;
33954;SDS011;20233;50.804;7.126;2023-08-31T06:47:55;3.85;;;1.70;;
33954;SDS011;20233;50.804;7.126;2023-08-31T06:50:22;5.72;;;1.77;;
33954;SDS011;20233;50.804;7.126;2023-08-31T06:52:49;4.07;;;1.73;;
33954;SDS011;20233;50.804;7.126;2023-08-31T06:55:16;4.47;;;1.58;;
33954;SDS011;20233;50.804;7.126;2023-08-31T06:57:43;4.55;;;1.50;;
33954;SDS011;20233;50.804;7.126;2023-08-31T07:00:11;6.57;;;1.70;;
33954;SDS011;20233;50.804;7.126;2023-08-31T07:02:39;8.02;;;1.63;;
33954;SDS011;20233;50.804;7.126;2023-08-31T07:05:07;3.00;;;1.30;;
33954;SDS011;20233;50.804;7.126;2023-08-31T07:07:35;3.92;;;1.45;;
33954;SDS011;20233;50.804;7.126;2023-08-31T07:10:02;4.10;;;1.42;;
33954;SDS011;20233;50.804;7.126;2023-08-31T07:12:28;6.22;;;1.58;;
33954;SDS011;20233;50.804;7.126;2023-08-31T07:14:55;3.38;;;1.15;;
33954;SDS011;20233;50.804;7.126;2023-08-31T07:17:21;6.65;;;1.13;;
33954;SDS011;20233;50.804;7.126;2023-08-31T07:19:48;5.60;;;1.58;;
33954;SDS011;20233;50.804;7.126;2023-08-31T07:22:17;4.05;;;1.40;;
33954;SDS011;20233;50.804;7.126;2023-08-31T07:24:43;3.70;;;1.65;;
33954;SDS011;20233;50.804;7.126;2023-08-31T07:27:11;5.28;;;1.13;;
33954;SDS011;20233;50.804;7.126;2023-08-31T07:29:39;6.30;;;1.65;;
33954;SDS011;20233;50.804;7.126;2023-08-31T07:32:06;4.28;;;0.95;;
33954;SDS011;20233;50.804;7.126;2023-08-31T07:34:33;5.78;;;1.35;;
33954;SDS011;20233;50.804;7.126;2023-08-31T07:36:59;7.57;;;1.00;;
33954;SDS011;20233;50.804;7.126;2023-08-31T07:39:27;6.40;;;1.20;;
33954;SDS011;20233;50.804;7.126;2023-08-31T07:41:54;2.67;;;1.00;;
33954;SDS011;20233;50.804;7.126;2023-08-31T07:44:21;9.82;;;1.13;;
33954;SDS011;20233;50.804;7.126;2023-08-31T07:46:48;4.85;;;1.05;;
33954;SDS011;20233;50.804;7.126;2023-08-31T07:49:14;4.93;;;1.02;;
33954;SDS011;20233;50.804;7.126;2023-08-31T07:51:41;5.28;;;0.63;;
33954;SDS011;20233;50.804;7.126;2023-08-31T07:54:08;2.85;;;0.60;;
33954;SDS011;20233;50.804;7.126;2023-08-31T07:56:35;4.97;;;1.02;;
33954;SDS011;20233;50.804;7.126;2023-08-31T07:59:02;2.78;;;0.63;;
33954;SDS011;20233;50.804;7.126;2023-08-31T08:01:29;4.03;;;0.65;;
33954;SDS011;20233;50.804;7.126;2023-08-31T08:03:55;3.90;;;0.93;;
33954;SDS011;20233;50.804;7.126;2023-08-31T08:06:23;2.80;;;0.80;;
33954;SDS011;20233;50.804;7.126;2023-08-31T08:08:54;1.83;;;0.80;;
33954;SDS011;20233;50.804;7.126;2023-08-31T08:11:22;4.97;;;0.75;;
33954;SDS011;20233;50.804;7.126;2023-08-31T08:13:49;4.53;;;0.73;;
33954;SDS011;20233;50.804;7.126;2023-08-31T08:16:16;3.42;;;1.15;;
33954;SDS011;20233;50.804;7.126;2023-08-31T08:18:42;3.72;;;0.50;;
33954;SDS011;20233;50.804;7.126;2023-08-31T08:21:09;5.07;;;1.33;;
33954;SDS011;20233;50.804;7.126;2023-08-31T08:23:36;3.78;;;0.40;;
33954;SDS011;20233;50.804;7.126;2023-08-31T08:26:02;2.78;;;0.40;;
33954;SDS011;20233;50.804;7.126;2023-08-31T08:28:29;3.05;;;0.93;;
33954;SDS011;20233;50.804;7.126;2023-08-31T08:30:56;2.25;;;0.40;;
33954;SDS011;20233;50.804;7.126;2023-08-31T08:33:23;3.22;;;0.52;;
33954;SDS011;20233;50.804;7.126;2023-08-31T08:38:24;2.45;;;0.52;;
33954;SDS011;20233;50.804;7.126;2023-08-31T08:40:52;4.25;;;0.50;;
33954;SDS011;20233;50.804;7.126;2023-08-31T08:43:24;2.55;;;0.40;;
33954;SDS011;20233;50.804;7.126;2023-08-31T08:45:54;4.97;;;0.93;;
33954;SDS011;20233;50.804;7.126;2023-08-31T08:48:24;2.03;;;0.60;;
33954;SDS011;20233;50.804;7.126;2023-08-31T08:50:50;3.10;;;0.90;;
33954;SDS011;20233;50.804;7.126;2023-08-31T08:53:18;5.35;;;1.23;;
33954;SDS011;20233;50.804;7.126;2023-08-31T08:55:45;2.85;;;0.60;;
33954;SDS011;20233;50.804;7.126;2023-08-31T08:58:14;2.50;;;0.60;;
33954;SDS011;20233;50.804;7.126;2023-08-31T09:00:40;4.90;;;0.90;;
33954;SDS011;20233;50.804;7.126;2023-08-31T09:03:09;5.35;;;0.70;;
33954;SDS011;20233;50.804;7.126;2023-08-31T09:05:36;8.15;;;0.90;;
33954;SDS011;20233;50.804;7.126;2023-08-31T09:08:06;4.72;;;0.70;;
33954;SDS011;20233;50.804;7.126;2023-08-31T09:10:38;4.25;;;1.13;;
33954;SDS011;20233;50.804;7.126;2023-08-31T09:13:10;2.20;;;0.63;;
33954;SDS011;20233;50.804;7.126;2023-08-31T09:15:45;2.33;;;0.40;;
33954;SDS011;20233;50.804;7.126;2023-08-31T09:18:23;2.17;;;0.47;;
33954;SDS011;20233;50.804;7.126;2023-08-31T09:20:59;4.47;;;0.40;;
33954;SDS011;20233;50.804;7.126;2023-08-31T09:23:27;2.58;;;0.47;;
33954;SDS011;20233;50.804;7.126;2023-08-31T09:25:55;4.88;;;0.45;;
33954;SDS011;20233;50.804;7.126;2023-08-31T09:28:23;2.72;;;0.50;;
33954;SDS011;20233;50.804;7.126;2023-08-31T09:30:53;1.80;;;0.40;;
33954;SDS011;20233;50.804;7.126;2023-08-31T09:33:30;1.88;;;0.50;;
33954;SDS011;20233;50.804;7.126;2023-08-31T09:35:57;4.32;;;0.55;;
33954;SDS011;20233;50.804;7.126;2023-08-31T09:38:27;4.10;;;0.40;;
33954;SDS011;20233;50.804;7.126;2023-08-31T09:41:27;1.35;;;0.30;;
33954;SDS011;20233;50.804;7.126;2023-08-31T09:43:48;5.22;;;0.40;;
33954;SDS011;20233;50.804;7.126;2023-08-31T09:46:15;3.53;;;0.82;;
33954;SDS011;20233;50.804;7.126;2023-08-31T09:48:54;3.70;;;0.30;;
33954;SDS011;20233;50.804;7.126;2023-08-31T09:51:22;3.05;;;0.20;;
33954;SDS011;20233;50.804;7.126;2023-08-31T09:53:53;2.03;;;0.30;;
33954;SDS011;20233;50.804;7.126;2023-08-31T09:56:24;1.13;;;0.45;;
33954;SDS011;20233;50.804;7.126;2023-08-31T09:58:52;2.28;;;0.60;;
33954;SDS011;20233;50.804;7.126;2023-08-31T10:01:19;2.00;;;0.40;;
33954;SDS011;20233;50.804;7.126;2023-08-31T10:03:45;3.63;;;0.20;;
33954;SDS011;20233;50.804;7.126;2023-08-31T10:06:13;2.20;;;0.50;;
33954;SDS011;20233;50.804;7.126;2023-08-31T10:08:44;1.15;;;0.30;;
33954;SDS011;20233;50.804;7.126;2023-08-31T10:11:11;4.30;;;0.82;;
33954;SDS011;20233;50.804;7.126;2023-08-31T10:13:40;3.13;;;0.40;;
33954;SDS011;20233;50.804;7.126;2023-08-31T10:16:08;2.85;;;0.57;;
33954;SDS011;20233;50.804;7.126;2023-08-31T10:18:36;2.45;;;0.82;;
33954;SDS011;20233;50.804;7.126;2023-08-31T10:21:04;1.25;;;0.30;;
33954;SDS011;20233;50.804;7.126;2023-08-31T10:23:31;1.65;;;0.30;;
33954;SDS011;20233;50.804;7.126;2023-08-31T10:28:26;2.03;;;0.30;;
33954;SDS011;20233;50.804;7.126;2023-08-31T10:31:36;5.65;;;0.40;;
33954;SDS011;20233;50.804;7.126;2023-08-31T10:33:54;2.50;;;0.30;;
33954;SDS011;20233;50.804;7.126;2023-08-31T10:36:40;2.80;;;0.38;;
33954;SDS011;20233;50.804;7.126;2023-08-31T10:39:16;3.90;;;0.68;;
33954;SDS011;20233;50.804;7.126;2023-08-31T10:41:54;2.50;;;0.45;;
33954;SDS011;20233;50.804;7.126;2023-08-31T10:44:22;3.67;;;0.40;;
33954;SDS011;20233;50.804;7.126;2023-08-31T10:46:50;1.63;;;0.30;;
33954;SDS011;20233;50.804;7.126;2023-08-31T10:49:18;3.00;;;0.45;;
33954;SDS011;20233;50.804;7.126;2023-08-31T10:54:24;2.10;;;0.40;;
33954;SDS011;20233;50.804;7.126;2023-08-31T10:56:54;2.70;;;0.40;;
33954;SDS011;20233;50.804;7.126;2023-08-31T10:59:22;4.00;;;0.30;;
33954;SDS011;20233;50.804;7.126;2023-08-31T11:01:54;2.97;;;0.55;;
33954;SDS011;20233;50.804;7.126;2023-08-31T11:04:27;2.70;;;0.30;;
33954;SDS011;20233;50.804;7.126;2023-08-31T11:09:43;3.65;;;0.60;;
33954;SDS011;20233;50.804;7.126;2023-08-31T11:12:12;3.63;;;0.77;;
33954;SDS011;20233;50.804;7.126;2023-08-31T11:14:40;2.13;;;0.50;;
33954;SDS011;20233;50.804;7.126;2023-08-31T11:17:07;2.85;;;0.28;;
33954;SDS011;20233;50.804;7.126;2023-08-31T11:19:35;2.15;;;0.32;;
33954;SDS011;20233;50.804;7.126;2023-08-31T11:22:06;3.25;;;0.60;;
33954;SDS011;20233;50.804;7.126;2023-08-31T11:27:09;4.72;;;1.00;;
33954;SDS011;20233;50.804;7.126;2023-08-31T11:29:37;5.28;;;0.55;;
33954;SDS011;20233;50.804;7.126;2023-08-31T11:32:11;2.95;;;0.63;;
33954;SDS011;20233;50.804;7.126;2023-08-31T11:34:41;4.63;;;0.73;;
33954;SDS011;20233;50.804;7.126;2023-08-31T11:37:09;4.57;;;0.85;;
33954;SDS011;20233;50.804;7.126;2023-08-31T11:39:50;3.33;;;0.90;;
33954;SDS011;20233;50.804;7.126;2023-08-31T11:42:21;4.90;;;0.90;;
33954;SDS011;20233;50.804;7.126;2023-08-31T11:44:48;3.45;;;0.60;;
33954;SDS011;20233;50.804;7.126;2023-08-31T11:47:18;4.85;;;0.80;;
33954;SDS011;20233;50.804;7.126;2023-08-31T11:49:45;7.65;;;1.35;;
33954;SDS011;20233;50.804;7.126;2023-08-31T11:52:14;3.67;;;0.57;;
33954;SDS011;20233;50.804;7.126;2023-08-31T11:54:42;3.55;;;0.50;;
33954;SDS011;20233;50.804;7.126;2023-08-31T11:57:09;7.32;;;1.48;;
33954;SDS011;20233;50.804;7.126;2023-08-31T11:59:37;6.05;;;1.70;;
33954;SDS011;20233;50.804;7.126;2023-08-31T12:02:06;11.05;;;2.97;;
33954;SDS011;20233;50.804;7.126;2023-08-31T12:04:41;5.03;;;1.27;;
33954;SDS011;20233;50.804;7.126;2023-08-31T12:07:12;5.03;;;0.93;;
33954;SDS011;20233;50.804;7.126;2023-08-31T12:12:19;4.35;;;0.80;;
33954;SDS011;20233;50.804;7.126;2023-08-31T12:14:52;4.53;;;1.23;;
33954;SDS011;20233;50.804;7.126;2023-08-31T12:17:19;7.55;;;1.40;;
33954;SDS011;20233;50.804;7.126;2023-08-31T12:19:47;5.78;;;1.27;;
33954;SDS011;20233;50.804;7.126;2023-08-31T12:22:15;6.50;;;1.00;;
33954;SDS011;20233;50.804;7.126;2023-08-31T12:24:42;3.95;;;1.77;;
33954;SDS011;20233;50.804;7.126;2023-08-31T12:27:09;4.30;;;1.33;;
33954;SDS011;20233;50.804;7.126;2023-08-31T12:29:36;3.90;;;1.17;;
33954;SDS011;20233;50.804;7.126;2023-08-31T12:32:03;2.80;;;0.73;;
33954;SDS011;20233;50.804;7.126;2023-08-31T12:34:30;3.10;;;0.80;;
33954;SDS011;20233;50.804;7.126;2023-08-31T12:36:57;2.60;;;1.05;;
33954;SDS011;20233;50.804;7.126;2023-08-31T12:39:27;6.85;;;0.90;;
33954;SDS011;20233;50.804;7.126;2023-08-31T12:41:54;3.45;;;1.40;;
33954;SDS011;20233;50.804;7.126;2023-08-31T12:44:21;4.72;;;1.50;;
33954;SDS011;20233;50.804;7.126;2023-08-31T12:46:51;4.05;;;1.00;;
33954;SDS011;20233;50.804;7.126;2023-08-31T12:49:18;3.70;;;1.10;;
33954;SDS011;20233;50.804;7.126;2023-08-31T12:51:45;3.50;;;1.10;;
33954;SDS011;20233;50.804;7.126;2023-08-31T12:54:12;4.55;;;1.00;;
33954;SDS011;20233;50.804;7.126;2023-08-31T12:56:40;4.43;;;0.70;;
33954;SDS011;20233;50.804;7.126;2023-08-31T12:59:08;3.63;;;0.90;;
33954;SDS011;20233;50.804;7.126;2023-08-31T13:01:40;5.60;;;1.65;;
33954;SDS011;20233;50.804;7.126;2023-08-31T13:04:08;5.40;;;1.40;;
33954;SDS011;20233;50.804;7.126;2023-08-31T13:06:35;6.05;;;1.63;;
33954;SDS011;20233;50.804;7.126;2023-08-31T13:09:03;6.68;;;1.60;;
33954;SDS011;20233;50.804;7.126;2023-08-31T13:11:31;5.78;;;1.88;;
33954;SDS011;20233;50.804;7.126;2023-08-31T13:13:57;5.10;;;2.10;;
33954;SDS011;20233;50.804;7.126;2023-08-31T13:16:24;6.50;;;2.40;;
33954;SDS011;20233;50.804;7.126;2023-08-31T13:18:52;4.97;;;1.77;;
33954;SDS011;20233;50.804;7.126;2023-08-31T13:21:19;7.15;;;2.38;;
33954;SDS011;20233;50.804;7.126;2023-08-31T13:23:46;5.28;;;1.92;;
33954;SDS011;20233;50.804;7.126;2023-08-31T13:26:13;5.40;;;2.35;;
33954;SDS011;20233;50.804;7.126;2023-08-31T13:28:43;8.40;;;3.00;;
33954;SDS011;20233;50.804;7.126;2023-08-31T13:31:10;4.90;;;2.63;;
33954;SDS011;20233;50.804;7.126;2023-08-31T13:33:37;7.28;;;2.58;;
33954;SDS011;20233;50.804;7.126;2023-08-31T13:36:03;7.15;;;2.55;;
33954;SDS011;20233;50.804;7.126;2023-08-31T13:38:29;7.72;;;2.35;;
33954;SDS011;20233;50.804;7.126;2023-08-31T13:40:55;4.07;;;2.50;;
33954;SDS011;20233;50.804;7.126;2023-08-31T13:43:22;4.05;;;2.05;;
33954;SDS011;20233;50.804;7.126;2023-08-31T13:45:49;3.85;;;1.50;;
33954;SDS011;20233;50.804;7.126;2023-08-31T13:48:16;6.10;;;1.77;;
33954;SDS011;20233;50.804;7.126;2023-08-31T13:50:45;5.72;;;1.60;;
33954;SDS011;20233;50.804;7.126;2023-08-31T13:53:12;5.40;;;1.58;;
33954;SDS011;20233;50.804;7.126;2023-08-31T13:55:38;9.00;;;1.85;;
33954;SDS011;20233;50.804;7.126;2023-08-31T13:58:05;4.38;;;1.50;;
33954;SDS011;20233;50.804;7.126;2023-08-31T14:00:33;4.97;;;1.33;;
33954;SDS011;20233;50.804;7.126;2023-08-31T14:03:00;4.70;;;1.63;;
33954;SDS011;20233;50.804;7.126;2023-08-31T14:05:29;5.23;;;1.50;;
33954;SDS011;20233;50.804;7.126;2023-08-31T14:07:56;4.97;;;1.40;;
33954;SDS011;20233;50.804;7.126;2023-08-31T14:10:23;3.97;;;1.17;;
33954;SDS011;20233;50.804;7.126;2023-08-31T14:12:51;3.40;;;1.55;;
33954;SDS011;20233;50.804;7.126;2023-08-31T14:15:17;6.93;;;1.00;;
33954;SDS011;20233;50.804;7.126;2023-08-31T14:17:44;6.07;;;1.73;;
33954;SDS011;20233;50.804;7.126;2023-08-31T14:20:10;7.35;;;1.48;;
33954;SDS011;20233;50.804;7.126;2023-08-31T14:22:37;5.72;;;1.48;;
33954;SDS011;20233;50.804;7.126;2023-08-31T14:25:09;4.43;;;1.45;;
33954;SDS011;20233;50.804;7.126;2023-08-31T14:27:36;5.18;;;1.30;;
33954;SDS011;20233;50.804;7.126;2023-08-31T14:30:02;5.53;;;1.52;;
33954;SDS011;20233;50.804;7.126;2023-08-31T14:32:31;5.45;;;1.10;;
33954;SDS011;20233;50.804;7.126;2023-08-31T14:34:57;3.72;;;1.25;;
33954;SDS011;20233;50.804;7.126;2023-08-31T14:37:26;4.32;;;1.75;;
33954;SDS011;20233;50.804;7.126;2023-08-31T14:39:53;4.63;;;1.45;;
33954;SDS011;20233;50.804;7.126;2023-08-31T14:42:19;4.88;;;1.63;;
33954;SDS011;20233;50.804;7.126;2023-08-31T14:44:47;5.40;;;1.35;;
33954;SDS011;20233;50.804;7.126;2023-08-31T14:47:16;5.65;;;1.38;;
33954;SDS011;20233;50.804;7.126;2023-08-31T14:49:43;4.93;;;1.45;;
33954;SDS011;20233;50.804;7.126;2023-08-31T14:52:11;5.13;;;1.33;;
33954;SDS011;20233;50.804;7.126;2023-08-31T14:54:38;4.38;;;0.80;;
33954;SDS011;20233;50.804;7.126;2023-08-31T14:57:04;3.90;;;1.00;;
33954;SDS011;20233;50.804;7.126;2023-08-31T14:59:30;4.80;;;1.30;;
33954;SDS011;20233;50.804;7.126;2023-08-31T15:01:56;3.50;;;1.05;;
33954;SDS011;20233;50.804;7.126;2023-08-31T15:04:24;4.95;;;1.38;;
33954;SDS011;20233;50.804;7.126;2023-08-31T15:06:52;9.98;;;1.50;;
33954;SDS011;20233;50.804;7.126;2023-08-31T15:09:19;3.67;;;0.80;;
33954;SDS011;20233;50.804;7.126;2023-08-31T15:11:46;3.50;;;1.20;;
33954;SDS011;20233;50.804;7.126;2023-08-31T15:14:12;4.13;;;1.00;;
33954;SDS011;20233;50.804;7.126;2023-08-31T15:16:39;4.10;;;1.13;;